createdAt,value
2023-03-24T00:01:37.147Z,49.00
2023-03-24T00:04:42.615Z,49.13
2023-03-24T00:07:46.724Z,49.13
2023-03-24T00:10:53.212Z,49.02
2023-03-24T00:13:58.461Z,49.08
2023-03-24T00:17:01.587Z,49.01
2023-03-24T00:20:12.282Z,49.03
2023-03-24T00:23:15.758Z,49.01
2023-03-24T00:26:20.186Z,49.13
2023-03-24T00:29:23.217Z,49.08
2023-03-24T00:32:27.380Z,48.99
2023-03-24T00:35:30.621Z,48.92
2023-03-24T00:38:36.298Z,48.97
2023-03-24T00:41:40.801Z,49.04
2023-03-24T00:44:44.831Z,49.05
2023-03-24T00:47:49.972Z,49.06
2023-03-24T00:50:53.751Z,49.03
2023-03-24T00:53:58.152Z,48.94
2023-03-24T00:57:03.151Z,49.09
2023-03-24T01:00:13.383Z,49.12
2023-03-24T01:03:17.533Z,49.03
2023-03-24T01:06:22.479Z,48.95
2023-03-24T01:09:26.181Z,49.01
2023-03-24T01:12:32.935Z,49.00
2023-03-24T01:15:36.637Z,49.03
2023-03-24T01:18:40.834Z,49.05
2023-03-24T01:21:44.070Z,49.06
2023-03-24T01:24:47.275Z,49.00
2023-03-24T01:27:53.552Z,48.96
2023-03-24T01:30:56.752Z,48.98
2023-03-24T01:33:59.790Z,48.98
2023-03-24T01:37:03.366Z,48.94
2023-03-24T01:40:09.002Z,48.98
2023-03-24T01:43:20.027Z,48.97
2023-03-24T01:46:26.676Z,49.03
2023-03-24T01:49:34.425Z,49.06
2023-03-24T01:52:38.303Z,49.07
2023-03-24T01:55:41.621Z,49.05
2023-03-24T01:58:51.982Z,49.06
2023-03-24T02:02:06.673Z,48.95
2023-03-24T02:05:19.625Z,48.99
2023-03-24T02:08:29.268Z,49.02
2023-03-24T02:11:35.072Z,48.98
2023-03-24T02:14:42.463Z,48.84
2023-03-24T02:17:57.868Z,48.90
2023-03-24T02:21:36.053Z,48.92
2023-03-24T02:25:29.747Z,48.89
2023-03-24T02:28:43.285Z,48.84
2023-03-24T02:32:10.422Z,48.89
2023-03-24T02:35:47.460Z,48.78
2023-03-24T02:39:30.030Z,48.75
2023-03-24T02:42:45.026Z,48.75
2023-03-24T02:45:59.505Z,48.71
2023-03-24T02:49:19.199Z,48.86
2023-03-24T02:52:30.485Z,48.80
2023-03-24T02:55:41.813Z,48.80
2023-03-24T02:58:50.798Z,48.80
2023-03-24T03:02:01.645Z,48.85
2023-03-24T03:05:20.396Z,48.88
2023-03-24T03:08:25.827Z,48.77
2023-03-24T03:11:30.549Z,48.83
2023-03-24T03:14:39.406Z,48.97
2023-03-24T03:17:49.124Z,48.83
2023-03-24T03:20:58.366Z,48.77
2023-03-24T03:24:05.989Z,48.81
2023-03-24T03:27:14.862Z,48.86
2023-03-24T03:30:22.876Z,48.84
2023-03-24T03:33:31.645Z,48.97
2023-03-24T03:36:41.140Z,48.83
2023-03-24T03:39:49.288Z,48.79
2023-03-24T03:42:54.077Z,48.84
2023-03-24T03:45:57.856Z,48.88
2023-03-24T03:49:09.002Z,48.83
2023-03-24T03:52:12.164Z,48.77
2023-03-24T03:55:15.785Z,48.70
2023-03-24T03:58:21.200Z,48.77
2023-03-24T04:01:37.201Z,48.77
2023-03-24T04:05:18.103Z,48.71
2023-03-24T04:08:40.077Z,48.76
2023-03-24T04:12:22.678Z,48.77
2023-03-24T04:16:11.726Z,48.73
2023-03-24T04:19:46.992Z,48.82
2023-03-24T04:23:03.628Z,48.68
2023-03-24T04:26:17.547Z,48.75
2023-03-24T04:29:33.779Z,48.67
2023-03-24T04:32:46.480Z,48.74
2023-03-24T04:35:58.269Z,48.76
2023-03-24T04:39:16.269Z,48.52
2023-03-24T04:42:31.771Z,48.75
2023-03-24T04:45:37.370Z,48.65
2023-03-24T04:49:05.064Z,48.67
2023-03-24T04:52:12.981Z,48.72
2023-03-24T04:55:33.735Z,48.67
2023-03-24T04:58:37.474Z,48.61
2023-03-24T05:01:40.800Z,48.75
2023-03-24T05:05:00.346Z,48.70
2023-03-24T05:08:19.563Z,48.75
2023-03-24T05:11:23.292Z,48.71
2023-03-24T05:14:36.535Z,48.72
2023-03-24T05:17:41.676Z,48.71
2023-03-24T05:20:46.356Z,48.73
2023-03-24T05:23:54.742Z,48.81
2023-03-24T05:26:57.937Z,48.69
2023-03-24T05:30:01.189Z,48.90
2023-03-24T05:33:08.696Z,48.78
2023-03-24T05:36:13.917Z,48.81
2023-03-24T05:39:19.014Z,48.89
2023-03-24T05:42:34.527Z,48.82
2023-03-24T05:45:40.828Z,48.81
2023-03-24T05:48:45.212Z,48.84
2023-03-24T05:51:52.077Z,48.71
2023-03-24T05:54:55.049Z,48.71
2023-03-24T05:58:03.628Z,48.84
2023-03-24T06:01:13.676Z,48.72
2023-03-24T06:04:16.718Z,48.78
2023-03-24T06:07:22.160Z,48.78
2023-03-24T06:10:26.343Z,48.76
2023-03-24T06:16:49.997Z,48.73
2023-03-24T06:19:54.676Z,48.79
2023-03-24T06:23:17.456Z,48.80
2023-03-24T06:26:33.028Z,48.69
2023-03-24T06:29:38.503Z,48.76
2023-03-24T06:32:43.503Z,48.82
2023-03-24T06:35:46.786Z,48.72
2023-03-24T06:38:54.178Z,48.75
2023-03-24T06:41:57.800Z,48.70
2023-03-24T06:45:01.161Z,48.68
2023-03-24T06:48:04.399Z,48.67
2023-03-24T06:51:08.382Z,48.64
2023-03-24T06:54:12.821Z,48.71
2023-03-24T06:57:16.260Z,48.74
2023-03-24T07:00:38.089Z,48.67
2023-03-24T07:04:01.325Z,48.67
2023-03-24T07:07:41.416Z,48.71
2023-03-24T07:10:58.199Z,48.71
2023-03-24T07:14:01.191Z,48.69
2023-03-24T07:17:05.680Z,48.70
2023-03-24T07:20:09.560Z,48.72
2023-03-24T07:23:18.126Z,48.72
2023-03-24T07:26:40.309Z,48.54
2023-03-24T07:29:58.835Z,48.65
2023-03-24T07:33:12.634Z,48.63
2023-03-24T07:36:17.853Z,48.68
2023-03-24T07:39:21.336Z,48.68
2023-03-24T07:42:26.113Z,48.65
2023-03-24T07:45:49.228Z,48.65
2023-03-24T07:48:52.520Z,48.73
2023-03-24T07:51:56.139Z,48.82
2023-03-24T07:55:11.947Z,48.71
2023-03-24T07:58:28.981Z,48.86
2023-03-24T08:01:52.614Z,48.99
2023-03-24T08:05:07.980Z,49.03
2023-03-24T08:08:24.541Z,49.10
2023-03-24T08:11:27.648Z,49.05
2023-03-24T08:14:32.285Z,49.18
2023-03-24T08:17:35.340Z,49.20
2023-03-24T08:20:38.245Z,49.12
2023-03-24T08:23:41.407Z,49.18
2023-03-24T08:26:46.591Z,49.29
2023-03-24T08:29:51.217Z,49.23
2023-03-24T08:32:55.996Z,49.31
2023-03-24T08:36:00.765Z,49.43
2023-03-24T08:39:06.347Z,49.42
2023-03-24T08:42:09.515Z,49.60
2023-03-24T08:45:14.027Z,49.46
2023-03-24T08:48:16.977Z,49.65
2023-03-24T08:51:20.000Z,49.52
2023-03-24T08:54:23.948Z,49.52
2023-03-24T08:57:26.889Z,49.61
2023-03-24T09:00:31.495Z,49.45
2023-03-24T09:03:36.018Z,49.59
2023-03-24T09:06:39.004Z,49.61
2023-03-24T09:09:41.882Z,49.56
2023-03-24T09:12:45.576Z,49.68
2023-03-24T09:15:52.309Z,49.65
2023-03-24T09:18:55.722Z,49.72
2023-03-24T09:21:58.825Z,49.60
2023-03-24T09:25:01.793Z,49.59
2023-03-24T09:28:06.185Z,49.63
2023-03-24T09:31:10.618Z,49.60
2023-03-24T09:34:13.521Z,49.53
2023-03-24T09:37:16.369Z,49.50
2023-03-24T09:40:22.164Z,49.17
2023-03-24T09:43:32.030Z,49.20
2023-03-24T09:46:40.270Z,49.35
2023-03-24T09:49:44.730Z,49.32
2023-03-24T09:52:50.727Z,49.45
2023-03-24T09:55:53.986Z,49.45
2023-03-24T09:59:04.397Z,49.43
2023-03-24T10:02:14.101Z,49.65
2023-03-24T10:05:19.349Z,49.54
2023-03-24T10:08:30.684Z,49.54
2023-03-24T10:11:43.353Z,49.59
2023-03-24T10:14:59.428Z,49.61
2023-03-24T10:18:28.259Z,49.57
2023-03-24T10:21:35.935Z,49.55
2023-03-24T10:24:48.270Z,49.64
2023-03-24T10:27:57.221Z,49.55
2023-03-24T10:31:04.083Z,49.58
2023-03-24T10:34:12.325Z,49.65
2023-03-24T10:37:17.520Z,49.72
2023-03-24T10:40:23.733Z,49.78
2023-03-24T10:43:27.996Z,49.75
2023-03-24T10:46:32.796Z,49.73
2023-03-24T10:49:38.078Z,49.70
2023-03-24T10:52:42.745Z,49.74
2023-03-24T10:55:46.372Z,49.72
2023-03-24T10:58:49.511Z,49.77
2023-03-24T11:01:57.561Z,49.73
2023-03-24T11:05:03.673Z,49.74
2023-03-24T11:08:28.634Z,49.84
2023-03-24T11:11:33.090Z,49.92
2023-03-24T11:14:45.881Z,49.83
2023-03-24T11:17:54.161Z,49.97
2023-03-24T11:21:04.125Z,49.97
2023-03-24T11:24:12.721Z,49.93
2023-03-24T11:27:18.503Z,49.90
2023-03-24T11:30:21.603Z,49.74
2023-03-24T11:33:35.075Z,49.77
2023-03-24T11:36:47.760Z,49.89
2023-03-24T11:40:15.771Z,49.82
2023-03-24T11:43:22.353Z,49.93
2023-03-24T11:46:26.595Z,49.78
2023-03-24T11:49:32.904Z,49.78
2023-03-24T11:52:42.028Z,49.75
2023-03-24T11:55:53.697Z,49.84
2023-03-24T11:59:04.086Z,49.74
2023-03-24T12:02:16.826Z,49.63
2023-03-24T12:05:31.118Z,49.64
2023-03-24T12:08:47.978Z,49.62
2023-03-24T12:12:08.456Z,49.89
2023-03-24T12:15:28.765Z,49.92
2023-03-24T12:18:52.741Z,49.99
2023-03-24T12:22:03.819Z,49.96
2023-03-24T12:25:39.252Z,49.72
2023-03-24T12:28:53.532Z,49.90
2023-03-24T12:32:48.243Z,49.75
2023-03-24T12:36:02.617Z,49.74
2023-03-24T12:39:11.112Z,49.74
2023-03-24T12:42:17.483Z,49.68
2023-03-24T12:45:32.381Z,49.65
2023-03-24T12:49:02.734Z,49.62
2023-03-24T12:52:17.880Z,49.82
2023-03-24T12:55:27.032Z,49.83
2023-03-24T12:58:41.505Z,49.89
2023-03-24T13:01:47.978Z,49.99
2023-03-24T13:04:55.423Z,50.07
2023-03-24T13:08:03.702Z,50.14
2023-03-24T13:11:16.878Z,50.30
2023-03-24T13:14:35.463Z,50.44
2023-03-24T13:17:45.349Z,50.22
2023-03-24T13:20:54.305Z,50.38
2023-03-24T13:24:00.425Z,50.31
2023-03-24T13:27:10.390Z,50.69
2023-03-24T13:30:31.309Z,50.60
2023-03-24T13:33:38.800Z,50.54
2023-03-24T13:36:48.478Z,50.47
2023-03-24T13:39:56.934Z,50.48
2023-03-24T13:43:01.716Z,50.59
2023-03-24T13:46:10.735Z,50.36
2023-03-24T13:49:16.213Z,50.38
2023-03-24T13:52:28.921Z,50.37
2023-03-24T13:55:37.694Z,50.37
2023-03-24T13:59:09.352Z,50.51
2023-03-24T14:02:41.220Z,50.40
2023-03-24T14:05:59.763Z,50.48
2023-03-24T14:09:06.730Z,50.57
2023-03-24T14:12:18.655Z,50.64
2023-03-24T14:15:22.661Z,50.76
2023-03-24T14:18:51.237Z,50.83
2023-03-24T14:21:59.318Z,51.02
2023-03-24T14:25:04.485Z,50.94
2023-03-24T14:28:28.883Z,51.02
2023-03-24T14:31:34.532Z,51.11
2023-03-24T14:34:39.024Z,51.00
2023-03-24T14:37:50.700Z,50.48
2023-03-24T14:40:58.018Z,49.74
2023-03-24T14:44:01.982Z,49.40
2023-03-24T14:47:05.256Z,49.18
2023-03-24T14:50:19.443Z,48.20
2023-03-24T14:53:24.501Z,47.42
2023-03-24T14:56:33.117Z,47.06
2023-03-24T14:59:46.587Z,47.11
2023-03-24T15:02:51.919Z,47.29
2023-03-24T15:06:05.338Z,47.32
2023-03-24T15:09:10.951Z,47.69
2023-03-24T15:12:13.930Z,47.83
2023-03-24T15:15:18.690Z,47.61
2023-03-24T15:18:22.454Z,47.67
2023-03-24T15:21:29.455Z,47.67
2023-03-24T15:24:41.866Z,47.87
2023-03-24T15:27:51.766Z,47.93
2023-03-24T15:30:56.340Z,48.04
2023-03-24T15:34:25.076Z,48.07
2023-03-24T15:37:35.719Z,48.12
2023-03-24T15:40:41.939Z,48.10
2023-03-24T15:43:49.183Z,48.21
2023-03-24T15:46:56.230Z,48.18
2023-03-24T15:50:01.366Z,48.32
2023-03-24T15:53:08.476Z,48.53
2023-03-24T15:56:19.910Z,48.42
2023-03-24T15:59:22.938Z,48.52
2023-03-24T16:02:32.260Z,48.38
2023-03-24T16:05:36.071Z,48.60
2023-03-24T16:08:43.426Z,48.58
2023-03-24T16:11:46.355Z,48.53
2023-03-24T16:14:49.358Z,48.43
2023-03-24T16:17:52.522Z,48.29
2023-03-24T16:20:55.633Z,48.37
2023-03-24T16:24:00.685Z,48.36
2023-03-24T16:27:03.640Z,48.44
2023-03-24T16:30:18.670Z,48.55
2023-03-24T16:33:22.504Z,48.51
2023-03-24T16:36:26.597Z,48.39
2023-03-24T16:39:32.393Z,48.48
2023-03-24T16:42:35.608Z,48.56
2023-03-24T16:45:38.655Z,48.60
2023-03-24T16:48:41.973Z,48.58
2023-03-24T16:51:45.148Z,48.76
2023-03-24T16:54:50.573Z,48.70
2023-03-24T16:57:53.531Z,48.78
2023-03-24T17:00:58.885Z,48.70
2023-03-24T17:04:03.904Z,48.81
2023-03-24T17:07:06.831Z,48.74
2023-03-24T17:10:11.746Z,48.73
2023-03-24T17:13:19.514Z,48.68
2023-03-24T17:16:22.867Z,48.75
2023-03-24T17:19:25.947Z,48.74
2023-03-24T17:22:29.035Z,48.74
2023-03-24T17:25:33.410Z,48.69
2023-03-24T17:28:36.417Z,48.73
2023-03-24T17:31:39.403Z,48.86
2023-03-24T17:34:43.319Z,48.83
2023-03-24T17:37:48.023Z,49.12
2023-03-24T17:40:59.944Z,49.07
2023-03-24T17:44:02.878Z,49.12
2023-03-24T17:47:07.150Z,49.08
2023-03-24T17:50:11.419Z,49.26
2023-03-24T17:53:14.379Z,49.26
2023-03-24T17:56:18.798Z,49.23
2023-03-24T17:59:22.064Z,49.28
2023-03-24T18:02:25.221Z,49.23
2023-03-24T18:05:28.285Z,49.16
2023-03-24T18:08:31.262Z,49.25
2023-03-24T18:11:35.873Z,49.23
2023-03-24T18:14:38.925Z,49.37
2023-03-24T18:17:41.977Z,49.28
2023-03-24T18:20:44.828Z,49.36
2023-03-24T18:23:48.627Z,49.38
2023-03-24T18:26:53.040Z,49.31
2023-03-24T18:29:56.034Z,49.36
2023-03-24T18:33:01.226Z,49.41
2023-03-24T18:36:05.616Z,49.33
2023-03-24T18:39:10.814Z,49.43
2023-03-24T18:42:15.384Z,49.41
2023-03-24T18:45:18.600Z,49.39
2023-03-24T18:48:21.488Z,49.41
2023-03-24T18:51:26.208Z,49.49
2023-03-24T18:54:29.135Z,49.57
2023-03-24T18:57:34.394Z,49.38
2023-03-24T19:00:37.276Z,49.42
2023-03-24T19:03:42.187Z,49.29
2023-03-24T19:06:45.410Z,49.47
2023-03-24T19:09:48.396Z,49.44
2023-03-24T19:12:52.637Z,49.44
2023-03-24T19:15:56.067Z,49.48
2023-03-24T19:19:00.222Z,49.37
2023-03-24T19:22:05.251Z,49.48
2023-03-24T19:25:09.440Z,49.45
2023-03-24T19:28:14.794Z,49.39
2023-03-24T19:31:19.679Z,49.40
2023-03-24T19:34:22.868Z,49.31
2023-03-24T19:37:26.974Z,49.39
2023-03-24T19:40:30.211Z,49.32
2023-03-24T19:43:35.866Z,49.38
2023-03-24T19:46:38.967Z,49.23
2023-03-24T19:49:42.028Z,49.27
2023-03-24T19:52:46.103Z,49.34
2023-03-24T19:55:49.706Z,49.33
2023-03-24T19:58:54.395Z,49.20
2023-03-24T20:01:57.608Z,49.18
2023-03-24T20:05:00.585Z,49.30
2023-03-24T20:08:03.647Z,49.26
2023-03-24T20:11:11.298Z,49.30
2023-03-24T20:14:16.951Z,49.29
2023-03-24T20:17:21.679Z,49.26
2023-03-24T20:20:24.685Z,49.26
2023-03-24T20:23:27.620Z,49.27
2023-03-24T20:26:31.141Z,49.19
2023-03-24T20:29:35.735Z,49.23
2023-03-24T20:32:39.118Z,49.29
2023-03-24T20:35:42.688Z,49.26
2023-03-24T20:38:45.853Z,49.31
2023-03-24T20:41:48.810Z,49.34
2023-03-24T20:44:53.160Z,49.21
2023-03-24T20:47:56.197Z,49.29
2023-03-24T20:50:59.836Z,49.14
2023-03-24T20:54:02.755Z,49.14
2023-03-24T20:57:06.403Z,49.19
2023-03-24T21:00:14.322Z,49.22
2023-03-24T21:03:17.525Z,49.14
2023-03-24T21:06:21.217Z,49.17
2023-03-24T21:09:24.610Z,49.21
2023-03-24T21:12:27.620Z,49.16
2023-03-24T21:15:32.169Z,49.18
2023-03-24T21:18:35.154Z,49.20
2023-03-24T21:21:39.078Z,49.11
2023-03-24T21:24:42.111Z,49.21
2023-03-24T21:27:45.555Z,49.20
2023-03-24T21:30:50.867Z,49.11
2023-03-24T21:33:54.672Z,49.08
2023-03-24T21:37:01.250Z,49.28
2023-03-24T21:40:06.470Z,49.18
2023-03-24T21:43:09.517Z,49.21
2023-03-24T21:46:20.454Z,49.47
2023-03-24T21:49:23.814Z,49.26
2023-03-24T21:52:28.839Z,49.28
2023-03-24T21:55:32.297Z,49.29
2023-03-24T21:58:35.652Z,49.32
2023-03-24T22:01:40.611Z,49.25
2023-03-24T22:04:43.664Z,49.32
2023-03-24T22:07:47.052Z,49.30
2023-03-24T22:10:50.225Z,49.37
2023-03-24T22:13:53.221Z,49.27
2023-03-24T22:16:57.681Z,49.31
2023-03-24T22:20:00.741Z,49.38
2023-03-24T22:23:03.705Z,49.41
2023-03-24T22:26:08.426Z,49.55
2023-03-24T22:29:11.711Z,49.61
2023-03-24T22:32:16.300Z,49.62
2023-03-24T22:35:21.317Z,49.63
2023-03-24T22:38:24.527Z,49.79
2023-03-24T22:41:27.582Z,49.71
2023-03-24T22:44:32.252Z,49.74
2023-03-24T22:47:36.644Z,49.76
2023-03-24T22:50:41.814Z,49.80
2023-03-24T22:53:45.764Z,49.77
2023-03-24T22:56:48.919Z,49.80
2023-03-24T22:59:52.002Z,49.91
2023-03-24T23:02:56.390Z,49.88
2023-03-24T23:06:01.801Z,49.86
2023-03-24T23:09:05.974Z,49.74
2023-03-24T23:12:09.250Z,49.65
2023-03-24T23:15:17.862Z,49.50
2023-03-24T23:18:22.285Z,49.46
2023-03-24T23:21:25.219Z,49.37
2023-03-24T23:24:28.708Z,49.37
2023-03-24T23:27:34.789Z,49.32
2023-03-24T23:30:38.182Z,49.37
2023-03-24T23:33:43.065Z,49.36
2023-03-24T23:36:49.881Z,49.40
2023-03-24T23:39:52.867Z,49.39
2023-03-24T23:42:56.006Z,49.35
2023-03-24T23:45:59.458Z,49.36
2023-03-24T23:49:03.786Z,49.35
2023-03-24T23:52:06.909Z,49.29
2023-03-24T23:55:11.404Z,49.32
2023-03-24T23:58:14.478Z,49.24
